sensor_id;sensor_type;location;lat;lon;timestamp;P1;durP1;ratioP1;P2;durP2;ratioP2
64957;SDS011;51486;50.232;19.208;2023-08-20T00:01:31;13.38;;;6.18;;
64957;SDS011;51486;50.232;19.208;2023-08-20T00:03:56;9.23;;;5.40;;
64957;SDS011;51486;50.232;19.208;2023-08-20T00:06:23;10.65;;;5.68;;
64957;SDS011;51486;50.232;19.208;2023-08-20T00:08:49;9.55;;;5.90;;
64957;SDS011;51486;50.232;19.208;2023-08-20T00:11:14;15.13;;;5.65;;
64957;SDS011;51486;50.232;19.208;2023-08-20T00:13:41;11.15;;;5.30;;
64957;SDS011;51486;50.232;19.208;2023-08-20T00:16:06;12.27;;;5.38;;
64957;SDS011;51486;50.232;19.208;2023-08-20T00:18:34;10.60;;;5.55;;
64957;SDS011;51486;50.232;19.208;2023-08-20T00:20:59;9.20;;;5.88;;
64957;SDS011;51486;50.232;19.208;2023-08-20T00:23:25;15.38;;;5.80;;
64957;SDS011;51486;50.232;19.208;2023-08-20T00:25:51;9.98;;;5.65;;
64957;SDS011;51486;50.232;19.208;2023-08-20T00:28:17;16.23;;;6.13;;
64957;SDS011;51486;50.232;19.208;2023-08-20T00:30:43;10.95;;;6.18;;
64957;SDS011;51486;50.232;19.208;2023-08-20T00:33:10;11.18;;;5.85;;
64957;SDS011;51486;50.232;19.208;2023-08-20T00:35:35;12.10;;;5.65;;
64957;SDS011;51486;50.232;19.208;2023-08-20T00:38:00;10.98;;;5.65;;
64957;SDS011;51486;50.232;19.208;2023-08-20T00:40:26;17.90;;;5.57;;
64957;SDS011;51486;50.232;19.208;2023-08-20T00:42:51;9.90;;;6.03;;
64957;SDS011;51486;50.232;19.208;2023-08-20T00:45:16;10.05;;;6.28;;
64957;SDS011;51486;50.232;19.208;2023-08-20T00:47:42;11.00;;;5.63;;
64957;SDS011;51486;50.232;19.208;2023-08-20T00:50:08;8.57;;;5.53;;
64957;SDS011;51486;50.232;19.208;2023-08-20T00:52:34;9.50;;;5.30;;
64957;SDS011;51486;50.232;19.208;2023-08-20T00:54:59;12.15;;;5.55;;
64957;SDS011;51486;50.232;19.208;2023-08-20T00:57:26;29.27;;;6.18;;
64957;SDS011;51486;50.232;19.208;2023-08-20T00:59:52;14.98;;;6.20;;
64957;SDS011;51486;50.232;19.208;2023-08-20T01:02:20;11.45;;;5.50;;
64957;SDS011;51486;50.232;19.208;2023-08-20T01:04:46;15.20;;;5.38;;
64957;SDS011;51486;50.232;19.208;2023-08-20T01:07:14;10.38;;;5.65;;
64957;SDS011;51486;50.232;19.208;2023-08-20T01:09:59;8.93;;;5.10;;
64957;SDS011;51486;50.232;19.208;2023-08-20T01:12:31;9.18;;;5.32;;
64957;SDS011;51486;50.232;19.208;2023-08-20T01:14:56;8.48;;;4.95;;
64957;SDS011;51486;50.232;19.208;2023-08-20T01:17:22;11.10;;;6.18;;
64957;SDS011;51486;50.232;19.208;2023-08-20T01:19:47;7.25;;;4.68;;
64957;SDS011;51486;50.232;19.208;2023-08-20T01:24:46;9.45;;;5.57;;
64957;SDS011;51486;50.232;19.208;2023-08-20T01:27:42;8.77;;;5.22;;
64957;SDS011;51486;50.232;19.208;2023-08-20T01:30:16;11.45;;;5.03;;
64957;SDS011;51486;50.232;19.208;2023-08-20T01:32:44;8.93;;;5.40;;
64957;SDS011;51486;50.232;19.208;2023-08-20T01:35:12;13.10;;;6.00;;
64957;SDS011;51486;50.232;19.208;2023-08-20T01:37:41;9.57;;;5.82;;
64957;SDS011;51486;50.232;19.208;2023-08-20T01:40:07;12.73;;;6.10;;
64957;SDS011;51486;50.232;19.208;2023-08-20T01:42:35;8.40;;;4.80;;
64957;SDS011;51486;50.232;19.208;2023-08-20T01:45:04;10.50;;;5.05;;
64957;SDS011;51486;50.232;19.208;2023-08-20T01:47:30;14.13;;;5.45;;
64957;SDS011;51486;50.232;19.208;2023-08-20T01:49:56;8.23;;;4.95;;
64957;SDS011;51486;50.232;19.208;2023-08-20T01:52:21;8.70;;;4.95;;
64957;SDS011;51486;50.232;19.208;2023-08-20T01:54:47;17.83;;;5.22;;
64957;SDS011;51486;50.232;19.208;2023-08-20T01:57:13;7.43;;;4.57;;
64957;SDS011;51486;50.232;19.208;2023-08-20T01:59:39;10.55;;;5.53;;
64957;SDS011;51486;50.232;19.208;2023-08-20T02:02:04;11.65;;;5.35;;
64957;SDS011;51486;50.232;19.208;2023-08-20T02:04:31;12.23;;;5.18;;
64957;SDS011;51486;50.232;19.208;2023-08-20T02:06:57;15.50;;;5.57;;
64957;SDS011;51486;50.232;19.208;2023-08-20T02:09:22;9.43;;;5.55;;
64957;SDS011;51486;50.232;19.208;2023-08-20T02:11:47;7.93;;;4.93;;
64957;SDS011;51486;50.232;19.208;2023-08-20T02:14:13;7.80;;;4.80;;
64957;SDS011;51486;50.232;19.208;2023-08-20T02:16:38;14.83;;;5.03;;
64957;SDS011;51486;50.232;19.208;2023-08-20T02:19:03;10.17;;;5.30;;
64957;SDS011;51486;50.232;19.208;2023-08-20T02:21:31;10.77;;;4.50;;
64957;SDS011;51486;50.232;19.208;2023-08-20T02:23:57;10.63;;;5.03;;
64957;SDS011;51486;50.232;19.208;2023-08-20T02:26:22;9.63;;;5.38;;
64957;SDS011;51486;50.232;19.208;2023-08-20T02:28:48;13.17;;;5.00;;
64957;SDS011;51486;50.232;19.208;2023-08-20T02:31:13;14.23;;;4.83;;
64957;SDS011;51486;50.232;19.208;2023-08-20T02:33:38;8.03;;;5.03;;
64957;SDS011;51486;50.232;19.208;2023-08-20T02:36:04;12.40;;;5.40;;
64957;SDS011;51486;50.232;19.208;2023-08-20T02:38:29;10.77;;;5.30;;
64957;SDS011;51486;50.232;19.208;2023-08-20T02:40:55;10.73;;;5.07;;
64957;SDS011;51486;50.232;19.208;2023-08-20T02:43:21;11.20;;;5.73;;
64957;SDS011;51486;50.232;19.208;2023-08-20T02:45:46;13.30;;;5.97;;
64957;SDS011;51486;50.232;19.208;2023-08-20T02:48:11;11.88;;;6.32;;
64957;SDS011;51486;50.232;19.208;2023-08-20T02:50:39;8.70;;;5.85;;
64957;SDS011;51486;50.232;19.208;2023-08-20T02:53:04;16.03;;;5.97;;
64957;SDS011;51486;50.232;19.208;2023-08-20T02:55:30;10.33;;;5.53;;
64957;SDS011;51486;50.232;19.208;2023-08-20T02:57:57;7.93;;;5.23;;
64957;SDS011;51486;50.232;19.208;2023-08-20T03:00:23;9.33;;;5.10;;
64957;SDS011;51486;50.232;19.208;2023-08-20T03:02:48;7.10;;;4.60;;
64957;SDS011;51486;50.232;19.208;2023-08-20T03:05:13;8.67;;;4.77;;
64957;SDS011;51486;50.232;19.208;2023-08-20T03:07:39;10.50;;;5.73;;
64957;SDS011;51486;50.232;19.208;2023-08-20T03:10:04;9.00;;;5.40;;
64957;SDS011;51486;50.232;19.208;2023-08-20T03:12:31;9.00;;;5.50;;
64957;SDS011;51486;50.232;19.208;2023-08-20T03:14:56;12.60;;;4.87;;
64957;SDS011;51486;50.232;19.208;2023-08-20T03:17:22;8.20;;;4.70;;
64957;SDS011;51486;50.232;19.208;2023-08-20T03:19:56;10.73;;;4.97;;
64957;SDS011;51486;50.232;19.208;2023-08-20T03:22:25;10.70;;;5.50;;
64957;SDS011;51486;50.232;19.208;2023-08-20T03:24:52;10.60;;;5.47;;
64957;SDS011;51486;50.232;19.208;2023-08-20T03:27:18;8.93;;;5.07;;
64957;SDS011;51486;50.232;19.208;2023-08-20T03:29:43;10.17;;;5.17;;
64957;SDS011;51486;50.232;19.208;2023-08-20T03:32:09;10.67;;;4.90;;
64957;SDS011;51486;50.232;19.208;2023-08-20T03:34:35;10.80;;;5.37;;
64957;SDS011;51486;50.232;19.208;2023-08-20T03:37:01;7.37;;;4.80;;
64957;SDS011;51486;50.232;19.208;2023-08-20T03:39:27;8.27;;;5.13;;
64957;SDS011;51486;50.232;19.208;2023-08-20T03:41:53;8.83;;;4.87;;
64957;SDS011;51486;50.232;19.208;2023-08-20T03:44:18;9.57;;;5.00;;
64957;SDS011;51486;50.232;19.208;2023-08-20T03:46:44;18.80;;;5.20;;
64957;SDS011;51486;50.232;19.208;2023-08-20T03:49:09;8.57;;;4.97;;
64957;SDS011;51486;50.232;19.208;2023-08-20T03:51:35;8.93;;;5.50;;
64957;SDS011;51486;50.232;19.208;2023-08-20T03:54:00;8.80;;;5.73;;
64957;SDS011;51486;50.232;19.208;2023-08-20T03:56:26;8.60;;;5.57;;
64957;SDS011;51486;50.232;19.208;2023-08-20T03:58:51;15.03;;;5.80;;
64957;SDS011;51486;50.232;19.208;2023-08-20T04:01:17;10.43;;;5.93;;
64957;SDS011;51486;50.232;19.208;2023-08-20T04:03:45;10.20;;;5.67;;
64957;SDS011;51486;50.232;19.208;2023-08-20T04:06:10;11.97;;;5.77;;
64957;SDS011;51486;50.232;19.208;2023-08-20T04:08:36;9.73;;;5.60;;
64957;SDS011;51486;50.232;19.208;2023-08-20T04:11:01;8.43;;;5.60;;
64957;SDS011;51486;50.232;19.208;2023-08-20T04:13:27;12.87;;;6.60;;
64957;SDS011;51486;50.232;19.208;2023-08-20T04:15:52;11.17;;;5.97;;
64957;SDS011;51486;50.232;19.208;2023-08-20T04:18:18;8.63;;;5.57;;
64957;SDS011;51486;50.232;19.208;2023-08-20T04:20:43;9.60;;;6.13;;
64957;SDS011;51486;50.232;19.208;2023-08-20T04:23:08;9.03;;;5.57;;
64957;SDS011;51486;50.232;19.208;2023-08-20T04:25:34;11.63;;;5.60;;
64957;SDS011;51486;50.232;19.208;2023-08-20T04:27:59;11.37;;;6.07;;
64957;SDS011;51486;50.232;19.208;2023-08-20T04:30:24;9.90;;;5.53;;
64957;SDS011;51486;50.232;19.208;2023-08-20T04:32:50;9.37;;;6.43;;
64957;SDS011;51486;50.232;19.208;2023-08-20T04:35:15;10.03;;;6.17;;
64957;SDS011;51486;50.232;19.208;2023-08-20T04:37:41;12.50;;;6.87;;
64957;SDS011;51486;50.232;19.208;2023-08-20T04:40:06;11.20;;;6.80;;
64957;SDS011;51486;50.232;19.208;2023-08-20T04:42:33;15.60;;;8.13;;
64957;SDS011;51486;50.232;19.208;2023-08-20T04:44:58;14.17;;;7.73;;
64957;SDS011;51486;50.232;19.208;2023-08-20T04:47:24;10.73;;;6.93;;
64957;SDS011;51486;50.232;19.208;2023-08-20T04:49:49;9.40;;;6.10;;
64957;SDS011;51486;50.232;19.208;2023-08-20T04:52:14;13.77;;;6.37;;
64957;SDS011;51486;50.232;19.208;2023-08-20T04:54:40;8.68;;;5.60;;
64957;SDS011;51486;50.232;19.208;2023-08-20T04:57:05;15.73;;;6.20;;
64957;SDS011;51486;50.232;19.208;2023-08-20T04:59:30;9.63;;;5.47;;
64957;SDS011;51486;50.232;19.208;2023-08-20T05:01:56;10.53;;;5.93;;
64957;SDS011;51486;50.232;19.208;2023-08-20T05:04:22;10.02;;;5.20;;
64957;SDS011;51486;50.232;19.208;2023-08-20T05:06:47;10.77;;;5.57;;
64957;SDS011;51486;50.232;19.208;2023-08-20T05:09:13;11.43;;;5.22;;
64957;SDS011;51486;50.232;19.208;2023-08-20T05:11:38;15.07;;;5.32;;
64957;SDS011;51486;50.232;19.208;2023-08-20T05:14:03;11.07;;;5.60;;
64957;SDS011;51486;50.232;19.208;2023-08-20T05:16:29;11.80;;;5.82;;
64957;SDS011;51486;50.232;19.208;2023-08-20T05:18:54;9.20;;;5.32;;
64957;SDS011;51486;50.232;19.208;2023-08-20T05:21:19;11.60;;;5.83;;
64957;SDS011;51486;50.232;19.208;2023-08-20T05:23:45;10.90;;;5.75;;
64957;SDS011;51486;50.232;19.208;2023-08-20T05:26:10;11.32;;;6.78;;
64957;SDS011;51486;50.232;19.208;2023-08-20T05:28:35;8.63;;;5.80;;
64957;SDS011;51486;50.232;19.208;2023-08-20T05:31:01;9.38;;;5.60;;
64957;SDS011;51486;50.232;19.208;2023-08-20T05:33:26;10.85;;;5.65;;
64957;SDS011;51486;50.232;19.208;2023-08-20T05:35:52;11.32;;;6.15;;
64957;SDS011;51486;50.232;19.208;2023-08-20T05:38:17;15.05;;;5.82;;
64957;SDS011;51486;50.232;19.208;2023-08-20T05:40:43;9.32;;;5.57;;
64957;SDS011;51486;50.232;19.208;2023-08-20T05:43:08;10.25;;;6.55;;
64957;SDS011;51486;50.232;19.208;2023-08-20T05:45:33;12.15;;;6.55;;
64957;SDS011;51486;50.232;19.208;2023-08-20T05:47:59;10.65;;;6.40;;
64957;SDS011;51486;50.232;19.208;2023-08-20T05:50:24;10.68;;;6.65;;
64957;SDS011;51486;50.232;19.208;2023-08-20T05:52:50;12.68;;;7.53;;
64957;SDS011;51486;50.232;19.208;2023-08-20T05:55:15;11.98;;;6.45;;
64957;SDS011;51486;50.232;19.208;2023-08-20T05:57:41;13.77;;;6.82;;
64957;SDS011;51486;50.232;19.208;2023-08-20T06:00:08;9.90;;;6.07;;
64957;SDS011;51486;50.232;19.208;2023-08-20T06:02:34;11.40;;;7.15;;
64957;SDS011;51486;50.232;19.208;2023-08-20T06:04:59;13.20;;;6.55;;
64957;SDS011;51486;50.232;19.208;2023-08-20T06:07:25;15.45;;;7.57;;
64957;SDS011;51486;50.232;19.208;2023-08-20T06:09:50;13.48;;;7.68;;
64957;SDS011;51486;50.232;19.208;2023-08-20T06:12:16;15.00;;;6.50;;
64957;SDS011;51486;50.232;19.208;2023-08-20T06:14:42;14.82;;;6.93;;
64957;SDS011;51486;50.232;19.208;2023-08-20T06:17:07;11.93;;;7.10;;
64957;SDS011;51486;50.232;19.208;2023-08-20T06:19:33;13.75;;;7.78;;
64957;SDS011;51486;50.232;19.208;2023-08-20T06:21:58;13.38;;;7.68;;
64957;SDS011;51486;50.232;19.208;2023-08-20T06:24:24;13.05;;;7.22;;
64957;SDS011;51486;50.232;19.208;2023-08-20T06:26:49;12.05;;;6.93;;
64957;SDS011;51486;50.232;19.208;2023-08-20T06:29:14;10.30;;;6.68;;
64957;SDS011;51486;50.232;19.208;2023-08-20T06:31:40;11.45;;;6.55;;
64957;SDS011;51486;50.232;19.208;2023-08-20T06:34:05;11.98;;;7.30;;
64957;SDS011;51486;50.232;19.208;2023-08-20T06:36:31;13.15;;;7.22;;
64957;SDS011;51486;50.232;19.208;2023-08-20T06:38:56;12.57;;;6.57;;
64957;SDS011;51486;50.232;19.208;2023-08-20T06:41:22;13.07;;;6.85;;
64957;SDS011;51486;50.232;19.208;2023-08-20T06:43:48;12.50;;;7.55;;
64957;SDS011;51486;50.232;19.208;2023-08-20T06:46:13;16.63;;;6.68;;
64957;SDS011;51486;50.232;19.208;2023-08-20T06:48:39;12.68;;;6.38;;
64957;SDS011;51486;50.232;19.208;2023-08-20T06:51:13;11.82;;;6.97;;
64957;SDS011;51486;50.232;19.208;2023-08-20T06:53:42;12.80;;;7.05;;
64957;SDS011;51486;50.232;19.208;2023-08-20T06:56:08;11.68;;;6.38;;
64957;SDS011;51486;50.232;19.208;2023-08-20T06:58:34;22.95;;;6.90;;
64957;SDS011;51486;50.232;19.208;2023-08-20T07:01:00;10.18;;;6.28;;
64957;SDS011;51486;50.232;19.208;2023-08-20T07:03:42;18.25;;;7.00;;
64957;SDS011;51486;50.232;19.208;2023-08-20T07:06:08;11.48;;;7.03;;
64957;SDS011;51486;50.232;19.208;2023-08-20T07:08:35;10.75;;;5.78;;
64957;SDS011;51486;50.232;19.208;2023-08-20T07:11:01;15.50;;;6.43;;
64957;SDS011;51486;50.232;19.208;2023-08-20T07:13:27;17.77;;;6.38;;
64957;SDS011;51486;50.232;19.208;2023-08-20T07:15:52;11.10;;;6.43;;
64957;SDS011;51486;50.232;19.208;2023-08-20T07:18:18;10.27;;;6.60;;
64957;SDS011;51486;50.232;19.208;2023-08-20T07:20:43;12.00;;;6.93;;
64957;SDS011;51486;50.232;19.208;2023-08-20T07:23:09;13.43;;;6.43;;
64957;SDS011;51486;50.232;19.208;2023-08-20T07:25:36;11.35;;;6.65;;
64957;SDS011;51486;50.232;19.208;2023-08-20T07:28:02;12.38;;;7.03;;
64957;SDS011;51486;50.232;19.208;2023-08-20T07:30:28;10.35;;;6.25;;
64957;SDS011;51486;50.232;19.208;2023-08-20T07:32:54;11.30;;;6.00;;
64957;SDS011;51486;50.232;19.208;2023-08-20T07:35:19;13.43;;;6.75;;
64957;SDS011;51486;50.232;19.208;2023-08-20T07:37:45;11.43;;;5.93;;
64957;SDS011;51486;50.232;19.208;2023-08-20T07:40:11;9.95;;;5.65;;
64957;SDS011;51486;50.232;19.208;2023-08-20T07:42:38;9.48;;;6.07;;
64957;SDS011;51486;50.232;19.208;2023-08-20T07:45:05;10.82;;;5.95;;
64957;SDS011;51486;50.232;19.208;2023-08-20T07:47:31;13.75;;;6.10;;
64957;SDS011;51486;50.232;19.208;2023-08-20T07:49:56;10.85;;;6.43;;
64957;SDS011;51486;50.232;19.208;2023-08-20T07:52:21;11.45;;;6.05;;
64957;SDS011;51486;50.232;19.208;2023-08-20T07:54:47;13.48;;;5.97;;
64957;SDS011;51486;50.232;19.208;2023-08-20T07:57:12;12.23;;;6.53;;
64957;SDS011;51486;50.232;19.208;2023-08-20T07:59:37;11.57;;;6.05;;
64957;SDS011;51486;50.232;19.208;2023-08-20T08:02:03;7.82;;;5.60;;
64957;SDS011;51486;50.232;19.208;2023-08-20T08:04:28;12.30;;;6.18;;
64957;SDS011;51486;50.232;19.208;2023-08-20T08:06:55;10.40;;;5.85;;
64957;SDS011;51486;50.232;19.208;2023-08-20T08:09:21;11.85;;;6.55;;
64957;SDS011;51486;50.232;19.208;2023-08-20T08:11:51;9.77;;;6.28;;
64957;SDS011;51486;50.232;19.208;2023-08-20T08:14:16;8.40;;;5.18;;
64957;SDS011;51486;50.232;19.208;2023-08-20T08:16:42;15.32;;;6.57;;
64957;SDS011;51486;50.232;19.208;2023-08-20T08:19:07;10.48;;;5.53;;
64957;SDS011;51486;50.232;19.208;2023-08-20T08:21:32;11.90;;;6.35;;
64957;SDS011;51486;50.232;19.208;2023-08-20T08:23:58;9.23;;;5.35;;
64957;SDS011;51486;50.232;19.208;2023-08-20T08:26:23;8.98;;;5.15;;
64957;SDS011;51486;50.232;19.208;2023-08-20T08:28:48;7.90;;;5.30;;
64957;SDS011;51486;50.232;19.208;2023-08-20T08:31:14;9.13;;;5.38;;
64957;SDS011;51486;50.232;19.208;2023-08-20T08:33:45;10.75;;;5.43;;
64957;SDS011;51486;50.232;19.208;2023-08-20T08:36:10;7.97;;;5.00;;
64957;SDS011;51486;50.232;19.208;2023-08-20T08:38:36;9.63;;;5.28;;
64957;SDS011;51486;50.232;19.208;2023-08-20T08:41:03;11.23;;;5.88;;
64957;SDS011;51486;50.232;19.208;2023-08-20T08:43:33;8.40;;;5.70;;
64957;SDS011;51486;50.232;19.208;2023-08-20T08:45:58;8.35;;;5.22;;
64957;SDS011;51486;50.232;19.208;2023-08-20T08:48:26;6.43;;;4.20;;
64957;SDS011;51486;50.232;19.208;2023-08-20T08:50:52;10.02;;;5.05;;
64957;SDS011;51486;50.232;19.208;2023-08-20T08:53:17;7.97;;;4.82;;
64957;SDS011;51486;50.232;19.208;2023-08-20T08:55:43;9.88;;;5.35;;
64957;SDS011;51486;50.232;19.208;2023-08-20T08:58:09;7.28;;;4.72;;
64957;SDS011;51486;50.232;19.208;2023-08-20T09:00:34;7.78;;;5.10;;
64957;SDS011;51486;50.232;19.208;2023-08-20T09:03:01;8.82;;;5.32;;
64957;SDS011;51486;50.232;19.208;2023-08-20T09:05:46;9.93;;;5.10;;
64957;SDS011;51486;50.232;19.208;2023-08-20T09:08:33;11.65;;;5.93;;
64957;SDS011;51486;50.232;19.208;2023-08-20T09:10:59;6.90;;;4.60;;
64957;SDS011;51486;50.232;19.208;2023-08-20T09:13:34;11.13;;;5.78;;
64957;SDS011;51486;50.232;19.208;2023-08-20T09:16:04;7.80;;;5.13;;
64957;SDS011;51486;50.232;19.208;2023-08-20T09:18:31;7.25;;;4.35;;
64957;SDS011;51486;50.232;19.208;2023-08-20T09:20:57;12.60;;;5.20;;
64957;SDS011;51486;50.232;19.208;2023-08-20T09:23:25;8.52;;;5.15;;
64957;SDS011;51486;50.232;19.208;2023-08-20T09:25:53;7.55;;;4.97;;
64957;SDS011;51486;50.232;19.208;2023-08-20T09:28:19;7.75;;;4.32;;
64957;SDS011;51486;50.232;19.208;2023-08-20T09:30:59;6.32;;;4.15;;
64957;SDS011;51486;50.232;19.208;2023-08-20T09:33:26;6.72;;;4.03;;
64957;SDS011;51486;50.232;19.208;2023-08-20T09:35:52;8.07;;;4.38;;
64957;SDS011;51486;50.232;19.208;2023-08-20T09:38:22;5.97;;;3.83;;
64957;SDS011;51486;50.232;19.208;2023-08-20T09:40:49;5.85;;;3.72;;
64957;SDS011;51486;50.232;19.208;2023-08-20T09:43:16;6.32;;;3.83;;
64957;SDS011;51486;50.232;19.208;2023-08-20T09:46:07;6.53;;;3.63;;
64957;SDS011;51486;50.232;19.208;2023-08-20T09:48:38;4.30;;;2.70;;
64957;SDS011;51486;50.232;19.208;2023-08-20T09:51:32;6.45;;;3.30;;
64957;SDS011;51486;50.232;19.208;2023-08-20T09:56:40;5.57;;;3.05;;
64957;SDS011;51486;50.232;19.208;2023-08-20T09:59:08;4.85;;;2.75;;
64957;SDS011;51486;50.232;19.208;2023-08-20T10:01:35;5.97;;;3.80;;
64957;SDS011;51486;50.232;19.208;2023-08-20T10:04:03;5.18;;;3.15;;
64957;SDS011;51486;50.232;19.208;2023-08-20T10:06:53;4.78;;;3.00;;
64957;SDS011;51486;50.232;19.208;2023-08-20T10:09:20;4.68;;;3.10;;
64957;SDS011;51486;50.232;19.208;2023-08-20T10:12:34;5.10;;;3.17;;
64957;SDS011;51486;50.232;19.208;2023-08-20T10:15:04;6.00;;;3.65;;
64957;SDS011;51486;50.232;19.208;2023-08-20T10:17:30;7.63;;;3.72;;
64957;SDS011;51486;50.232;19.208;2023-08-20T10:19:58;6.85;;;3.53;;
64957;SDS011;51486;50.232;19.208;2023-08-20T10:22:36;5.15;;;3.20;;
64957;SDS011;51486;50.232;19.208;2023-08-20T10:25:04;9.23;;;3.65;;
64957;SDS011;51486;50.232;19.208;2023-08-20T10:27:34;9.02;;;3.70;;
64957;SDS011;51486;50.232;19.208;2023-08-20T10:30:02;6.18;;;3.70;;
64957;SDS011;51486;50.232;19.208;2023-08-20T10:32:44;6.53;;;3.50;;
64957;SDS011;51486;50.232;19.208;2023-08-20T10:35:25;5.22;;;3.53;;
64957;SDS011;51486;50.232;19.208;2023-08-20T10:40:54;6.35;;;3.20;;
64957;SDS011;51486;50.232;19.208;2023-08-20T10:43:27;4.80;;;3.60;;
64957;SDS011;51486;50.232;19.208;2023-08-20T10:46:10;6.75;;;3.80;;
64957;SDS011;51486;50.232;19.208;2023-08-20T10:49:01;5.50;;;3.30;;
64957;SDS011;51486;50.232;19.208;2023-08-20T10:56:47;8.52;;;3.67;;
64957;SDS011;51486;50.232;19.208;2023-08-20T10:59:22;4.63;;;3.35;;
64957;SDS011;51486;50.232;19.208;2023-08-20T11:01:51;5.38;;;3.20;;
64957;SDS011;51486;50.232;19.208;2023-08-20T11:04:22;12.75;;;3.67;;
64957;SDS011;51486;50.232;19.208;2023-08-20T11:06:55;6.60;;;3.50;;
64957;SDS011;51486;50.232;19.208;2023-08-20T11:09:22;5.25;;;3.25;;
64957;SDS011;51486;50.232;19.208;2023-08-20T11:11:48;6.47;;;3.42;;
64957;SDS011;51486;50.232;19.208;2023-08-20T11:14:15;5.65;;;3.75;;
64957;SDS011;51486;50.232;19.208;2023-08-20T11:16:46;6.18;;;3.90;;
64957;SDS011;51486;50.232;19.208;2023-08-20T11:19:19;4.40;;;3.08;;
64957;SDS011;51486;50.232;19.208;2023-08-20T11:22:12;7.05;;;3.72;;
64957;SDS011;51486;50.232;19.208;2023-08-20T11:24:43;4.88;;;3.42;;
64957;SDS011;51486;50.232;19.208;2023-08-20T11:27:09;6.38;;;4.13;;
64957;SDS011;51486;50.232;19.208;2023-08-20T11:29:36;6.13;;;3.47;;
64957;SDS011;51486;50.232;19.208;2023-08-20T11:32:09;5.80;;;3.00;;
64957;SDS011;51486;50.232;19.208;2023-08-20T11:34:56;4.57;;;2.95;;
64957;SDS011;51486;50.232;19.208;2023-08-20T11:37:22;5.10;;;3.42;;
64957;SDS011;51486;50.232;19.208;2023-08-20T11:39:50;5.45;;;3.58;;
64957;SDS011;51486;50.232;19.208;2023-08-20T11:42:16;6.38;;;3.42;;
64957;SDS011;51486;50.232;19.208;2023-08-20T11:44:42;4.53;;;3.03;;
64957;SDS011;51486;50.232;19.208;2023-08-20T11:47:13;3.95;;;2.70;;
64957;SDS011;51486;50.232;19.208;2023-08-20T11:49:40;8.38;;;4.00;;
64957;SDS011;51486;50.232;19.208;2023-08-20T11:52:05;4.47;;;2.63;;
64957;SDS011;51486;50.232;19.208;2023-08-20T11:54:31;4.63;;;3.28;;
64957;SDS011;51486;50.232;19.208;2023-08-20T11:57:01;5.60;;;3.40;;
64957;SDS011;51486;50.232;19.208;2023-08-20T11:59:28;3.95;;;2.72;;
64957;SDS011;51486;50.232;19.208;2023-08-20T12:01:57;4.50;;;2.90;;
64957;SDS011;51486;50.232;19.208;2023-08-20T12:04:23;8.10;;;3.55;;
64957;SDS011;51486;50.232;19.208;2023-08-20T12:07:08;4.22;;;2.80;;
64957;SDS011;51486;50.232;19.208;2023-08-20T12:09:34;3.95;;;2.55;;
64957;SDS011;51486;50.232;19.208;2023-08-20T12:12:00;5.55;;;2.78;;
64957;SDS011;51486;50.232;19.208;2023-08-20T12:14:26;4.28;;;3.03;;
64957;SDS011;51486;50.232;19.208;2023-08-20T12:16:53;4.40;;;2.78;;
64957;SDS011;51486;50.232;19.208;2023-08-20T12:19:19;4.15;;;3.05;;
64957;SDS011;51486;50.232;19.208;2023-08-20T12:21:45;4.20;;;3.13;;
64957;SDS011;51486;50.232;19.208;2023-08-20T12:24:11;5.22;;;2.67;;
64957;SDS011;51486;50.232;19.208;2023-08-20T12:26:46;3.83;;;2.38;;
64957;SDS011;51486;50.232;19.208;2023-08-20T12:29:21;4.13;;;2.97;;
64957;SDS011;51486;50.232;19.208;2023-08-20T12:31:50;7.22;;;3.03;;
64957;SDS011;51486;50.232;19.208;2023-08-20T12:34:21;3.08;;;2.40;;
64957;SDS011;51486;50.232;19.208;2023-08-20T12:36:49;3.78;;;2.45;;
64957;SDS011;51486;50.232;19.208;2023-08-20T12:39:14;3.20;;;2.40;;
64957;SDS011;51486;50.232;19.208;2023-08-20T12:41:40;3.08;;;2.47;;
64957;SDS011;51486;50.232;19.208;2023-08-20T12:44:11;5.93;;;2.85;;
64957;SDS011;51486;50.232;19.208;2023-08-20T12:46:38;4.82;;;2.58;;
64957;SDS011;51486;50.232;19.208;2023-08-20T12:49:03;5.70;;;2.83;;
64957;SDS011;51486;50.232;19.208;2023-08-20T12:51:29;2.97;;;2.35;;
64957;SDS011;51486;50.232;19.208;2023-08-20T12:53:57;5.00;;;2.90;;
64957;SDS011;51486;50.232;19.208;2023-08-20T12:56:33;3.95;;;2.67;;
64957;SDS011;51486;50.232;19.208;2023-08-20T12:58:59;4.18;;;2.53;;
64957;SDS011;51486;50.232;19.208;2023-08-20T13:01:24;5.32;;;2.40;;
64957;SDS011;51486;50.232;19.208;2023-08-20T13:03:59;11.57;;;2.97;;
64957;SDS011;51486;50.232;19.208;2023-08-20T13:06:24;3.65;;;2.53;;
64957;SDS011;51486;50.232;19.208;2023-08-20T13:08:51;5.32;;;2.80;;
64957;SDS011;51486;50.232;19.208;2023-08-20T13:11:22;5.45;;;2.92;;
64957;SDS011;51486;50.232;19.208;2023-08-20T13:13:51;4.47;;;2.55;;
64957;SDS011;51486;50.232;19.208;2023-08-20T13:16:18;3.60;;;2.88;;
64957;SDS011;51486;50.232;19.208;2023-08-20T13:18:54;3.22;;;2.38;;
64957;SDS011;51486;50.232;19.208;2023-08-20T13:21:20;6.25;;;2.90;;
64957;SDS011;51486;50.232;19.208;2023-08-20T13:23:46;3.60;;;2.15;;
64957;SDS011;51486;50.232;19.208;2023-08-20T13:26:11;4.65;;;2.83;;
64957;SDS011;51486;50.232;19.208;2023-08-20T13:28:37;7.10;;;2.65;;
64957;SDS011;51486;50.232;19.208;2023-08-20T13:31:02;2.95;;;2.30;;
64957;SDS011;51486;50.232;19.208;2023-08-20T13:33:28;5.75;;;2.92;;
64957;SDS011;51486;50.232;19.208;2023-08-20T13:35:53;5.10;;;2.67;;
64957;SDS011;51486;50.232;19.208;2023-08-20T13:38:18;6.47;;;3.00;;
64957;SDS011;51486;50.232;19.208;2023-08-20T13:40:46;5.22;;;2.45;;
64957;SDS011;51486;50.232;19.208;2023-08-20T13:43:11;4.10;;;2.65;;
64957;SDS011;51486;50.232;19.208;2023-08-20T13:45:36;4.97;;;2.63;;
64957;SDS011;51486;50.232;19.208;2023-08-20T13:48:02;12.20;;;2.65;;
64957;SDS011;51486;50.232;19.208;2023-08-20T13:50:30;3.83;;;2.45;;
64957;SDS011;51486;50.232;19.208;2023-08-20T13:52:56;3.80;;;2.70;;
64957;SDS011;51486;50.232;19.208;2023-08-20T13:55:21;5.53;;;2.97;;
64957;SDS011;51486;50.232;19.208;2023-08-20T13:57:53;3.13;;;2.33;;
64957;SDS011;51486;50.232;19.208;2023-08-20T14:00:27;4.45;;;2.30;;
64957;SDS011;51486;50.232;19.208;2023-08-20T14:02:52;5.60;;;2.35;;
64957;SDS011;51486;50.232;19.208;2023-08-20T14:05:21;3.88;;;2.75;;
64957;SDS011;51486;50.232;19.208;2023-08-20T14:07:46;4.00;;;2.30;;
64957;SDS011;51486;50.232;19.208;2023-08-20T14:10:14;8.25;;;3.65;;
64957;SDS011;51486;50.232;19.208;2023-08-20T14:12:47;3.97;;;2.55;;
64957;SDS011;51486;50.232;19.208;2023-08-20T14:15:19;2.90;;;1.95;;
64957;SDS011;51486;50.232;19.208;2023-08-20T14:17:44;4.60;;;2.50;;
64957;SDS011;51486;50.232;19.208;2023-08-20T14:20:10;6.72;;;2.50;;
64957;SDS011;51486;50.232;19.208;2023-08-20T14:22:36;4.55;;;2.53;;
64957;SDS011;51486;50.232;19.208;2023-08-20T14:25:02;4.30;;;2.55;;
64957;SDS011;51486;50.232;19.208;2023-08-20T14:27:28;3.60;;;2.42;;
64957;SDS011;51486;50.232;19.208;2023-08-20T14:29:54;3.15;;;2.42;;
64957;SDS011;51486;50.232;19.208;2023-08-20T14:32:19;3.58;;;2.33;;
64957;SDS011;51486;50.232;19.208;2023-08-20T14:34:49;2.90;;;2.00;;
64957;SDS011;51486;50.232;19.208;2023-08-20T14:37:14;4.38;;;2.38;;
64957;SDS011;51486;50.232;19.208;2023-08-20T14:39:40;4.82;;;2.97;;
64957;SDS011;51486;50.232;19.208;2023-08-20T14:42:05;5.60;;;2.88;;
64957;SDS011;51486;50.232;19.208;2023-08-20T14:44:31;4.60;;;2.53;;